sensor_id;sensor_type;location;lat;lon;timestamp;temperature;humidity
24087;DHT22;22893;50.572;7.234;2022-10-15T06:18:04;21.20;80.50
24087;DHT22;22893;50.572;7.234;2022-10-15T06:20:31;21.20;80.50
24087;DHT22;22893;50.572;7.234;2022-10-15T06:22:59;21.20;80.50
24087;DHT22;22893;50.572;7.234;2022-10-15T06:25:27;21.20;80.40
24087;DHT22;22893;50.572;7.234;2022-10-15T06:27:55;21.20;80.40
24087;DHT22;22893;50.572;7.234;2022-10-15T06:30:22;21.20;80.40
24087;DHT22;22893;50.572;7.234;2022-10-15T06:32:51;21.20;80.40
24087;DHT22;22893;50.572;7.234;2022-10-15T06:35:21;21.20;80.50
24087;DHT22;22893;50.572;7.234;2022-10-15T06:37:49;21.20;80.40
24087;DHT22;22893;50.572;7.234;2022-10-15T06:40:16;21.20;80.40
24087;DHT22;22893;50.572;7.234;2022-10-15T06:42:44;21.20;80.40
24087;DHT22;22893;50.572;7.234;2022-10-15T06:45:12;21.20;80.40
24087;DHT22;22893;50.572;7.234;2022-10-15T06:47:40;21.20;80.50
24087;DHT22;22893;50.572;7.234;2022-10-15T06:50:07;21.20;80.40
24087;DHT22;22893;50.572;7.234;2022-10-15T06:52:35;21.20;80.40
24087;DHT22;22893;50.572;7.234;2022-10-15T06:55:03;21.30;81.10
24087;DHT22;22893;50.572;7.234;2022-10-15T06:57:31;21.30;80.60
24087;DHT22;22893;50.572;7.234;2022-10-15T06:59:59;21.30;80.50
24087;DHT22;22893;50.572;7.234;2022-10-15T07:02:26;21.20;80.50
24087;DHT22;22893;50.572;7.234;2022-10-15T07:04:53;21.30;80.40
24087;DHT22;22893;50.572;7.234;2022-10-15T07:07:21;21.30;80.40
24087;DHT22;22893;50.572;7.234;2022-10-15T07:09:49;21.30;80.50
24087;DHT22;22893;50.572;7.234;2022-10-15T07:12:18;21.30;80.60
24087;DHT22;22893;50.572;7.234;2022-10-15T07:14:48;21.20;80.60
24087;DHT22;22893;50.572;7.234;2022-10-15T07:17:16;21.30;80.60
24087;DHT22;22893;50.572;7.234;2022-10-15T07:19:43;21.30;80.70
24087;DHT22;22893;50.572;7.234;2022-10-15T07:22:11;21.30;80.60
24087;DHT22;22893;50.572;7.234;2022-10-15T07:24:38;21.30;80.60
24087;DHT22;22893;50.572;7.234;2022-10-15T07:27:06;21.30;80.70
24087;DHT22;22893;50.572;7.234;2022-10-15T07:29:33;21.30;80.60
24087;DHT22;22893;50.572;7.234;2022-10-15T07:32:01;21.30;80.60
24087;DHT22;22893;50.572;7.234;2022-10-15T07:34:29;21.30;81.50
24087;DHT22;22893;50.572;7.234;2022-10-15T07:36:56;21.30;80.60
24087;DHT22;22893;50.572;7.234;2022-10-15T07:39:24;21.30;80.80
24087;DHT22;22893;50.572;7.234;2022-10-15T07:41:51;21.30;80.60
24087;DHT22;22893;50.572;7.234;2022-10-15T07:44:19;21.30;80.70
24087;DHT22;22893;50.572;7.234;2022-10-15T07:46:47;21.30;80.80
24087;DHT22;22893;50.572;7.234;2022-10-15T07:49:14;21.30;80.90
24087;DHT22;22893;50.572;7.234;2022-10-15T07:51:42;21.30;80.90
24087;DHT22;22893;50.572;7.234;2022-10-15T07:54:09;21.30;80.80
24087;DHT22;22893;50.572;7.234;2022-10-15T07:56:37;21.30;80.90
24087;DHT22;22893;50.572;7.234;2022-10-15T07:59:05;21.30;80.70
24087;DHT22;22893;50.572;7.234;2022-10-15T08:01:34;21.30;80.90
24087;DHT22;22893;50.572;7.234;2022-10-15T08:04:01;21.30;80.80
24087;DHT22;22893;50.572;7.234;2022-10-15T08:06:30;21.30;80.90
24087;DHT22;22893;50.572;7.234;2022-10-15T08:08:58;21.30;81.00
24087;DHT22;22893;50.572;7.234;2022-10-15T08:11:26;21.30;81.90
24087;DHT22;22893;50.572;7.234;2022-10-15T08:13:53;21.30;81.50
24087;DHT22;22893;50.572;7.234;2022-10-15T08:16:21;21.30;81.40
24087;DHT22;22893;50.572;7.234;2022-10-15T08:18:48;21.30;82.60
24087;DHT22;22893;50.572;7.234;2022-10-15T08:21:16;21.30;82.30
24087;DHT22;22893;50.572;7.234;2022-10-15T08:23:43;21.30;81.70
24087;DHT22;22893;50.572;7.234;2022-10-15T08:26:11;21.30;81.70
24087;DHT22;22893;50.572;7.234;2022-10-15T08:28:38;21.30;81.40
24087;DHT22;22893;50.572;7.234;2022-10-15T08:31:06;21.30;81.20
24087;DHT22;22893;50.572;7.234;2022-10-15T08:33:34;21.30;81.40
24087;DHT22;22893;50.572;7.234;2022-10-15T08:36:06;21.30;81.30
24087;DHT22;22893;50.572;7.234;2022-10-15T08:38:34;21.30;81.30
24087;DHT22;22893;50.572;7.234;2022-10-15T08:41:04;21.30;81.20
24087;DHT22;22893;50.572;7.234;2022-10-15T08:43:37;21.30;81.30
24087;DHT22;22893;50.572;7.234;2022-10-15T08:46:11;21.30;81.20
24087;DHT22;22893;50.572;7.234;2022-10-15T08:48:42;21.30;81.20
24087;DHT22;22893;50.572;7.234;2022-10-15T08:51:17;21.40;81.20
24087;DHT22;22893;50.572;7.234;2022-10-15T08:53:54;21.30;81.50
24087;DHT22;22893;50.572;7.234;2022-10-15T08:56:33;21.40;81.40
24087;DHT22;22893;50.572;7.234;2022-10-15T09:01:56;21.30;81.40
24087;DHT22;22893;50.572;7.234;2022-10-15T09:04:37;21.30;81.40
24087;DHT22;22893;50.572;7.234;2022-10-15T09:07:30;21.40;81.40
24087;DHT22;22893;50.572;7.234;2022-10-15T09:09:47;21.40;81.40
24087;DHT22;22893;50.572;7.234;2022-10-15T09:12:35;21.30;81.70
24087;DHT22;22893;50.572;7.234;2022-10-15T09:15:02;21.30;81.40
24087;DHT22;22893;50.572;7.234;2022-10-15T09:17:31;21.30;81.70
24087;DHT22;22893;50.572;7.234;2022-10-15T09:20:04;21.40;81.40
24087;DHT22;22893;50.572;7.234;2022-10-15T09:22:34;21.40;81.40
24087;DHT22;22893;50.572;7.234;2022-10-15T09:25:16;21.30;81.20
24087;DHT22;22893;50.572;7.234;2022-10-15T09:27:46;21.30;81.00
24087;DHT22;22893;50.572;7.234;2022-10-15T09:30:38;21.30;81.20
24087;DHT22;22893;50.572;7.234;2022-10-15T09:33:08;21.40;81.30
24087;DHT22;22893;50.572;7.234;2022-10-15T09:35:54;21.30;81.10
24087;DHT22;22893;50.572;7.234;2022-10-15T09:38:39;21.40;81.40
24087;DHT22;22893;50.572;7.234;2022-10-15T09:43:44;21.40;81.20
24087;DHT22;22893;50.572;7.234;2022-10-15T09:46:12;21.40;81.40
24087;DHT22;22893;50.572;7.234;2022-10-15T09:51:34;21.40;81.20
24087;DHT22;22893;50.572;7.234;2022-10-15T12:15:58;21.60;83.50
24087;DHT22;22893;50.572;7.234;2022-10-15T12:18:32;21.60;83.50
24087;DHT22;22893;50.572;7.234;2022-10-15T12:20:57;21.60;83.90
24087;DHT22;22893;50.572;7.234;2022-10-15T12:28:55;21.60;84.50
24087;DHT22;22893;50.572;7.234;2022-10-15T12:31:22;21.60;84.50
24087;DHT22;22893;50.572;7.234;2022-10-15T12:33:57;21.60;84.50
24087;DHT22;22893;50.572;7.234;2022-10-15T12:36:26;21.70;84.60
24087;DHT22;22893;50.572;7.234;2022-10-15T12:39:06;21.60;85.40
24087;DHT22;22893;50.572;7.234;2022-10-15T12:41:39;21.60;84.50
24087;DHT22;22893;50.572;7.234;2022-10-15T12:44:26;21.70;84.50
24087;DHT22;22893;50.572;7.234;2022-10-15T12:46:50;21.70;84.50
24087;DHT22;22893;50.572;7.234;2022-10-15T12:51:59;21.70;84.40
24087;DHT22;22893;50.572;7.234;2022-10-15T12:54:41;21.70;84.30
24087;DHT22;22893;50.572;7.234;2022-10-15T13:00:26;21.70;84.50
24087;DHT22;22893;50.572;7.234;2022-10-15T13:02:42;21.70;84.40
24087;DHT22;22893;50.572;7.234;2022-10-15T13:05:26;21.70;84.70
24087;DHT22;22893;50.572;7.234;2022-10-15T13:07:56;21.70;84.30
24087;DHT22;22893;50.572;7.234;2022-10-15T13:10:45;21.70;84.30
24087;DHT22;22893;50.572;7.234;2022-10-15T13:13:11;21.70;85.10
24087;DHT22;22893;50.572;7.234;2022-10-15T13:15:34;21.70;84.30
24087;DHT22;22893;50.572;7.234;2022-10-15T13:18:12;21.70;84.50
24087;DHT22;22893;50.572;7.234;2022-10-15T13:20:41;21.70;84.30
24087;DHT22;22893;50.572;7.234;2022-10-15T13:25:42;21.80;84.40
24087;DHT22;22893;50.572;7.234;2022-10-15T13:28:33;21.80;84.20
24087;DHT22;22893;50.572;7.234;2022-10-15T13:31:05;21.70;84.20
24087;DHT22;22893;50.572;7.234;2022-10-15T13:33:38;21.80;84.40
24087;DHT22;22893;50.572;7.234;2022-10-15T13:36:07;21.80;84.30
24087;DHT22;22893;50.572;7.234;2022-10-15T13:38:38;21.80;84.40
24087;DHT22;22893;50.572;7.234;2022-10-15T13:41:06;21.70;84.30
24087;DHT22;22893;50.572;7.234;2022-10-15T13:43:34;21.70;84.50
24087;DHT22;22893;50.572;7.234;2022-10-15T13:46:02;21.70;84.30
24087;DHT22;22893;50.572;7.234;2022-10-15T13:48:31;21.80;84.70
24087;DHT22;22893;50.572;7.234;2022-10-15T13:51:00;21.80;84.50
24087;DHT22;22893;50.572;7.234;2022-10-15T13:53:32;21.70;84.40
24087;DHT22;22893;50.572;7.234;2022-10-15T13:56:45;21.80;84.50
24087;DHT22;22893;50.572;7.234;2022-10-15T13:58:34;21.80;84.50
24087;DHT22;22893;50.572;7.234;2022-10-15T14:01:07;21.80;84.50
24087;DHT22;22893;50.572;7.234;2022-10-15T14:03:34;21.80;84.50
24087;DHT22;22893;50.572;7.234;2022-10-15T14:06:17;21.80;84.30
24087;DHT22;22893;50.572;7.234;2022-10-15T14:08:51;21.80;84.30
24087;DHT22;22893;50.572;7.234;2022-10-15T14:11:16;21.80;84.50
24087;DHT22;22893;50.572;7.234;2022-10-15T14:13:49;21.80;84.40
24087;DHT22;22893;50.572;7.234;2022-10-15T14:19:08;21.80;84.20
24087;DHT22;22893;50.572;7.234;2022-10-15T14:21:27;21.80;84.30
24087;DHT22;22893;50.572;7.234;2022-10-15T14:24:05;21.80;84.30
24087;DHT22;22893;50.572;7.234;2022-10-15T14:26:33;21.80;84.30
24087;DHT22;22893;50.572;7.234;2022-10-15T14:29:01;21.80;84.30
24087;DHT22;22893;50.572;7.234;2022-10-15T14:31:37;21.80;84.30
24087;DHT22;22893;50.572;7.234;2022-10-15T14:36:52;21.80;84.20
24087;DHT22;22893;50.572;7.234;2022-10-15T14:39:30;21.80;84.30
24087;DHT22;22893;50.572;7.234;2022-10-15T14:42:01;21.80;84.20
24087;DHT22;22893;50.572;7.234;2022-10-15T14:44:45;21.80;84.00
24087;DHT22;22893;50.572;7.234;2022-10-15T14:47:25;21.80;84.10
24087;DHT22;22893;50.572;7.234;2022-10-15T14:49:52;21.80;84.20
24087;DHT22;22893;50.572;7.234;2022-10-15T14:52:19;21.80;84.20
24087;DHT22;22893;50.572;7.234;2022-10-15T14:55:11;21.80;84.20
24087;DHT22;22893;50.572;7.234;2022-10-15T14:57:37;21.80;84.10
24087;DHT22;22893;50.572;7.234;2022-10-15T15:00:26;21.90;85.10
24087;DHT22;22893;50.572;7.234;2022-10-15T15:02:56;21.80;84.00
24087;DHT22;22893;50.572;7.234;2022-10-15T15:05:46;21.80;84.00
24087;DHT22;22893;50.572;7.234;2022-10-15T15:08:14;21.80;84.00
24087;DHT22;22893;50.572;7.234;2022-10-15T15:10:43;21.90;84.10
24087;DHT22;22893;50.572;7.234;2022-10-15T15:13:16;21.80;84.10
24087;DHT22;22893;50.572;7.234;2022-10-15T15:15:42;21.90;84.00
24087;DHT22;22893;50.572;7.234;2022-10-15T15:18:10;21.90;84.10
24087;DHT22;22893;50.572;7.234;2022-10-15T15:20:39;21.90;83.90
24087;DHT22;22893;50.572;7.234;2022-10-15T15:23:23;21.90;84.00
24087;DHT22;22893;50.572;7.234;2022-10-15T15:25:52;21.90;84.80
24087;DHT22;22893;50.572;7.234;2022-10-15T15:28:25;21.90;84.00
24087;DHT22;22893;50.572;7.234;2022-10-15T15:30:58;21.90;84.00
24087;DHT22;22893;50.572;7.234;2022-10-15T15:33:23;21.90;83.90
24087;DHT22;22893;50.572;7.234;2022-10-15T15:38:31;21.90;84.10
24087;DHT22;22893;50.572;7.234;2022-10-15T15:41:10;21.90;84.10
24087;DHT22;22893;50.572;7.234;2022-10-15T15:43:39;21.90;83.90
24087;DHT22;22893;50.572;7.234;2022-10-15T15:46:06;21.90;84.10
24087;DHT22;22893;50.572;7.234;2022-10-15T15:48:35;21.90;83.90
24087;DHT22;22893;50.572;7.234;2022-10-15T15:51:05;21.90;84.00
24087;DHT22;22893;50.572;7.234;2022-10-15T15:53:33;21.90;84.10
24087;DHT22;22893;50.572;7.234;2022-10-15T15:56:01;21.90;84.90
24087;DHT22;22893;50.572;7.234;2022-10-15T15:58:28;21.90;83.90
24087;DHT22;22893;50.572;7.234;2022-10-15T16:00:56;21.90;83.90
24087;DHT22;22893;50.572;7.234;2022-10-15T16:03:24;21.90;83.90
24087;DHT22;22893;50.572;7.234;2022-10-15T16:05:51;21.90;83.90
24087;DHT22;22893;50.572;7.234;2022-10-15T16:08:19;21.90;84.00
24087;DHT22;22893;50.572;7.234;2022-10-15T16:10:46;21.90;83.90
24087;DHT22;22893;50.572;7.234;2022-10-15T16:13:14;21.90;83.80
24087;DHT22;22893;50.572;7.234;2022-10-15T16:15:41;21.90;83.90
24087;DHT22;22893;50.572;7.234;2022-10-15T16:18:09;21.90;83.90
24087;DHT22;22893;50.572;7.234;2022-10-15T16:20:37;21.90;83.90
24087;DHT22;22893;50.572;7.234;2022-10-15T16:23:08;21.90;83.90
24087;DHT22;22893;50.572;7.234;2022-10-15T16:25:35;21.90;83.90
24087;DHT22;22893;50.572;7.234;2022-10-15T16:28:03;21.90;83.90
24087;DHT22;22893;50.572;7.234;2022-10-15T16:30:31;21.90;83.90
24087;DHT22;22893;50.572;7.234;2022-10-15T16:32:58;21.90;84.00
24087;DHT22;22893;50.572;7.234;2022-10-15T16:35:26;21.90;83.50
24087;DHT22;22893;50.572;7.234;2022-10-15T16:37:53;22.00;84.00
24087;DHT22;22893;50.572;7.234;2022-10-15T16:40:21;21.90;83.90
24087;DHT22;22893;50.572;7.234;2022-10-15T16:42:49;21.90;84.00
24087;DHT22;22893;50.572;7.234;2022-10-15T16:45:17;21.90;84.10
24087;DHT22;22893;50.572;7.234;2022-10-15T16:47:44;21.90;83.70
24087;DHT22;22893;50.572;7.234;2022-10-15T16:50:12;21.90;83.90
24087;DHT22;22893;50.572;7.234;2022-10-15T16:52:39;22.00;84.00
24087;DHT22;22893;50.572;7.234;2022-10-15T16:55:07;21.90;84.00
24087;DHT22;22893;50.572;7.234;2022-10-15T16:57:35;21.90;83.90
24087;DHT22;22893;50.572;7.234;2022-10-15T17:00:03;21.90;83.90
24087;DHT22;22893;50.572;7.234;2022-10-15T17:02:31;22.00;84.10
24087;DHT22;22893;50.572;7.234;2022-10-15T17:04:58;21.90;83.90
24087;DHT22;22893;50.572;7.234;2022-10-15T17:07:26;22.00;84.00
24087;DHT22;22893;50.572;7.234;2022-10-15T17:10:19;22.00;84.10
24087;DHT22;22893;50.572;7.234;2022-10-15T17:12:48;21.90;84.00
24087;DHT22;22893;50.572;7.234;2022-10-15T17:15:16;21.90;84.00
24087;DHT22;22893;50.572;7.234;2022-10-15T17:17:44;21.90;84.00
24087;DHT22;22893;50.572;7.234;2022-10-15T17:20:11;21.90;83.90
24087;DHT22;22893;50.572;7.234;2022-10-15T17:22:42;22.00;83.90
24087;DHT22;22893;50.572;7.234;2022-10-15T17:25:14;22.00;83.90
24087;DHT22;22893;50.572;7.234;2022-10-15T17:27:41;22.00;83.90
24087;DHT22;22893;50.572;7.234;2022-10-15T17:30:09;22.00;84.00
24087;DHT22;22893;50.572;7.234;2022-10-15T17:32:37;22.00;83.90
24087;DHT22;22893;50.572;7.234;2022-10-15T17:35:04;21.90;83.90
24087;DHT22;22893;50.572;7.234;2022-10-15T17:37:33;22.00;83.90
24087;DHT22;22893;50.572;7.234;2022-10-15T17:40:01;22.00;83.90
24087;DHT22;22893;50.572;7.234;2022-10-15T17:42:28;22.00;83.90
24087;DHT22;22893;50.572;7.234;2022-10-15T17:44:56;21.90;83.80
24087;DHT22;22893;50.572;7.234;2022-10-15T17:47:24;22.00;83.90
24087;DHT22;22893;50.572;7.234;2022-10-15T17:49:51;22.00;83.90
24087;DHT22;22893;50.572;7.234;2022-10-15T17:52:19;21.90;83.80
24087;DHT22;22893;50.572;7.234;2022-10-15T17:54:46;21.90;83.90
24087;DHT22;22893;50.572;7.234;2022-10-15T17:57:14;21.90;83.90
24087;DHT22;22893;50.572;7.234;2022-10-15T17:59:42;22.00;83.90
24087;DHT22;22893;50.572;7.234;2022-10-15T18:02:09;22.00;83.90
24087;DHT22;22893;50.572;7.234;2022-10-15T18:04:37;21.90;84.00
24087;DHT22;22893;50.572;7.234;2022-10-15T18:07:06;22.00;84.10
24087;DHT22;22893;50.572;7.234;2022-10-15T18:09:33;22.00;84.10
24087;DHT22;22893;50.572;7.234;2022-10-15T18:12:02;22.00;84.10
24087;DHT22;22893;50.572;7.234;2022-10-15T18:14:29;22.00;84.10
24087;DHT22;22893;50.572;7.234;2022-10-15T18:16:57;22.00;84.00
24087;DHT22;22893;50.572;7.234;2022-10-15T22:02:26;22.00;82.60
24087;DHT22;22893;50.572;7.234;2022-10-15T22:04:53;22.00;82.70
24087;DHT22;22893;50.572;7.234;2022-10-15T22:07:21;22.00;82.60
24087;DHT22;22893;50.572;7.234;2022-10-15T22:09:48;22.00;82.70
24087;DHT22;22893;50.572;7.234;2022-10-15T22:12:16;22.00;82.50
24087;DHT22;22893;50.572;7.234;2022-10-15T22:14:43;22.00;82.50
24087;DHT22;22893;50.572;7.234;2022-10-15T22:17:11;22.00;82.60
24087;DHT22;22893;50.572;7.234;2022-10-15T22:19:38;22.00;82.50
24087;DHT22;22893;50.572;7.234;2022-10-15T22:22:06;22.00;82.50
24087;DHT22;22893;50.572;7.234;2022-10-15T22:24:33;22.00;82.50
24087;DHT22;22893;50.572;7.234;2022-10-15T22:27:01;22.00;82.50
24087;DHT22;22893;50.572;7.234;2022-10-15T22:29:29;22.00;82.50
24087;DHT22;22893;50.572;7.234;2022-10-15T22:31:56;22.00;82.50
24087;DHT22;22893;50.572;7.234;2022-10-15T22:34:24;22.00;82.40
24087;DHT22;22893;50.572;7.234;2022-10-15T22:36:51;22.00;82.50
24087;DHT22;22893;50.572;7.234;2022-10-15T22:39:19;21.90;82.80
24087;DHT22;22893;50.572;7.234;2022-10-15T22:41:47;21.90;82.90
24087;DHT22;22893;50.572;7.234;2022-10-15T22:44:17;21.90;83.10
24087;DHT22;22893;50.572;7.234;2022-10-15T22:46:45;21.90;83.10
24087;DHT22;22893;50.572;7.234;2022-10-15T22:49:19;21.80;83.30
24087;DHT22;22893;50.572;7.234;2022-10-15T22:51:47;21.90;83.30
24087;DHT22;22893;50.572;7.234;2022-10-15T22:54:17;21.90;84.10
24087;DHT22;22893;50.572;7.234;2022-10-15T22:56:45;21.80;83.30
24087;DHT22;22893;50.572;7.234;2022-10-15T22:59:13;21.80;83.40
24087;DHT22;22893;50.572;7.234;2022-10-15T23:01:40;21.80;83.40
24087;DHT22;22893;50.572;7.234;2022-10-15T23:04:09;21.80;83.20
24087;DHT22;22893;50.572;7.234;2022-10-15T23:06:38;21.80;83.30
24087;DHT22;22893;50.572;7.234;2022-10-15T23:09:07;21.80;83.40
24087;DHT22;22893;50.572;7.234;2022-10-15T23:11:38;21.80;83.50
24087;DHT22;22893;50.572;7.234;2022-10-15T23:14:08;21.80;83.50
24087;DHT22;22893;50.572;7.234;2022-10-15T23:16:37;21.80;83.40
24087;DHT22;22893;50.572;7.234;2022-10-15T23:19:13;21.80;83.50
